createdAt,value
2023-01-07T00:01:40.611Z,20.36
2023-01-07T00:04:15.711Z,20.32
2023-01-07T00:06:45.301Z,20.32
2023-01-07T00:09:15.592Z,20.26
2023-01-07T00:11:45.160Z,20.26
2023-01-07T00:14:14.979Z,20.30
2023-01-07T00:16:43.954Z,20.33
2023-01-07T00:19:15.018Z,20.30
2023-01-07T00:21:44.286Z,20.29
2023-01-07T00:24:13.074Z,20.24
2023-01-07T00:26:41.749Z,20.20
2023-01-07T00:29:10.316Z,20.18
2023-01-07T00:31:41.010Z,20.16
2023-01-07T00:34:09.856Z,20.12
2023-01-07T00:36:41.827Z,20.11
2023-01-07T00:39:18.904Z,20.04
2023-01-07T00:41:48.494Z,20.03
2023-01-07T00:44:16.868Z,20.04
2023-01-07T00:46:45.125Z,19.97
2023-01-07T00:49:13.999Z,19.91
2023-01-07T00:51:42.446Z,19.91
2023-01-07T00:54:11.020Z,19.87
2023-01-07T00:56:39.302Z,19.84
2023-01-07T00:59:07.455Z,19.72
2023-01-07T01:01:35.711Z,19.73
2023-01-07T01:04:04.484Z,19.73
2023-01-07T01:06:32.672Z,19.72
2023-01-07T01:09:00.817Z,19.79
2023-01-07T01:11:29.065Z,19.82
2023-01-07T01:13:57.197Z,19.80
2023-01-07T01:16:25.475Z,19.77
2023-01-07T01:18:54.044Z,19.75
2023-01-07T01:21:22.196Z,19.84
2023-01-07T01:23:50.587Z,19.82
2023-01-07T01:26:18.788Z,19.79
2023-01-07T01:28:47.984Z,19.74
2023-01-07T01:31:16.213Z,19.71
2023-01-07T01:33:44.605Z,19.71
2023-01-07T01:36:13.311Z,19.77
2023-01-07T01:38:42.049Z,19.77
2023-01-07T01:41:10.620Z,19.73
2023-01-07T01:43:41.379Z,19.68
2023-01-07T01:46:28.841Z,19.64
2023-01-07T01:49:06.111Z,19.60
2023-01-07T01:51:39.212Z,19.62
2023-01-07T01:54:11.711Z,19.58
2023-01-07T01:56:44.934Z,19.56
2023-01-07T01:59:19.109Z,19.49
2023-01-07T02:01:47.908Z,19.44
2023-01-07T02:04:21.066Z,19.41
2023-01-07T02:07:12.069Z,19.38
2023-01-07T02:09:40.184Z,19.33
2023-01-07T02:12:50.153Z,19.36
2023-01-07T02:15:40.737Z,19.30
2023-01-07T02:18:37.486Z,19.30
2023-01-07T02:21:36.469Z,19.31
2023-01-07T02:24:26.586Z,19.33
2023-01-07T02:27:09.933Z,19.38
2023-01-07T02:30:10.298Z,19.34
2023-01-07T02:32:41.446Z,19.27
2023-01-07T02:35:12.318Z,19.22
2023-01-07T02:37:59.421Z,19.23
2023-01-07T02:40:34.533Z,19.17
2023-01-07T02:43:26.429Z,19.20
2023-01-07T02:46:13.558Z,19.18
2023-01-07T02:48:42.351Z,19.18
2023-01-07T02:51:10.571Z,19.17
2023-01-07T02:53:40.983Z,19.21
2023-01-07T02:56:38.269Z,19.26
2023-01-07T02:59:06.494Z,19.23
2023-01-07T03:02:04.873Z,19.20
2023-01-07T03:05:14.786Z,19.14
2023-01-07T03:08:22.471Z,19.00
2023-01-07T03:11:04.654Z,18.96
2023-01-07T03:13:42.754Z,18.92
2023-01-07T03:16:18.649Z,18.87
2023-01-07T03:18:54.134Z,18.85
2023-01-07T03:21:24.868Z,18.90
2023-01-07T03:23:57.001Z,18.87
2023-01-07T03:26:31.079Z,18.82
2023-01-07T03:29:01.995Z,18.81
2023-01-07T03:31:31.440Z,18.78
2023-01-07T03:34:02.592Z,18.73
2023-01-07T03:36:37.685Z,18.70
2023-01-07T03:39:08.771Z,18.61
2023-01-07T03:41:39.339Z,18.63
2023-01-07T03:44:07.425Z,18.63
2023-01-07T03:46:37.498Z,18.64
2023-01-07T03:49:05.743Z,18.60
2023-01-07T03:51:33.952Z,18.62
2023-01-07T03:54:02.139Z,18.63
2023-01-07T03:56:31.003Z,18.64
2023-01-07T03:58:59.444Z,18.57
2023-01-07T04:01:28.028Z,18.52
2023-01-07T04:03:56.777Z,18.52
2023-01-07T04:06:25.029Z,18.56
2023-01-07T04:08:53.264Z,18.52
2023-01-07T04:11:21.725Z,18.53
2023-01-07T04:13:49.881Z,18.59
2023-01-07T04:16:18.159Z,18.63
2023-01-07T04:18:46.514Z,18.66
2023-01-07T04:21:14.792Z,18.65
2023-01-07T04:23:43.617Z,18.65
2023-01-07T04:26:12.339Z,18.65
2023-01-07T04:28:40.540Z,18.64
2023-01-07T04:31:08.966Z,18.69
2023-01-07T04:33:37.519Z,18.69
2023-01-07T04:36:05.967Z,18.65
2023-01-07T04:38:34.324Z,18.62
2023-01-07T04:41:02.720Z,18.60
2023-01-07T04:43:30.972Z,18.58
2023-01-07T04:45:59.245Z,18.61
2023-01-07T04:48:27.417Z,18.61
2023-01-07T04:50:55.583Z,18.60
2023-01-07T04:53:23.825Z,18.50
2023-01-07T04:55:53.878Z,18.42
2023-01-07T04:58:22.098Z,18.39
2023-01-07T05:00:50.293Z,18.44
2023-01-07T05:03:19.025Z,18.44
2023-01-07T05:05:47.195Z,18.40
2023-01-07T05:08:15.620Z,18.39
2023-01-07T05:10:43.848Z,18.38
2023-01-07T05:13:17.021Z,18.42
2023-01-07T05:15:45.446Z,18.43
2023-01-07T05:18:13.788Z,18.47
2023-01-07T05:20:42.116Z,18.47
2023-01-07T05:23:10.559Z,18.49
2023-01-07T05:25:38.716Z,18.49
2023-01-07T05:28:06.876Z,18.47
2023-01-07T05:30:35.300Z,18.46
2023-01-07T05:33:03.438Z,18.49
2023-01-07T05:35:31.643Z,18.48
2023-01-07T05:37:59.766Z,18.47
2023-01-07T05:40:28.370Z,18.45
2023-01-07T05:42:56.854Z,18.41
2023-01-07T05:45:25.001Z,18.41
2023-01-07T05:47:53.364Z,18.42
2023-01-07T05:50:21.518Z,18.44
2023-01-07T05:52:51.598Z,18.47
2023-01-07T05:55:20.630Z,18.50
2023-01-07T05:57:48.768Z,18.51
2023-01-07T06:00:17.381Z,18.54
2023-01-07T06:02:45.520Z,18.54
2023-01-07T06:05:13.729Z,18.53
2023-01-07T06:07:42.536Z,18.51
2023-01-07T06:10:10.894Z,18.52
2023-01-07T06:12:39.236Z,18.54
2023-01-07T06:15:08.195Z,18.57
2023-01-07T06:17:36.387Z,18.57
2023-01-07T06:20:06.286Z,18.56
2023-01-07T06:22:37.349Z,18.59
2023-01-07T06:25:05.751Z,18.58
2023-01-07T06:27:34.078Z,18.63
2023-01-07T06:30:03.125Z,18.66
2023-01-07T06:32:31.378Z,18.68
2023-01-07T06:34:59.552Z,18.72
2023-01-07T06:37:28.840Z,18.69
2023-01-07T06:39:56.990Z,18.66
2023-01-07T06:42:25.294Z,18.77
2023-01-07T06:44:53.526Z,18.77
2023-01-07T06:47:21.752Z,18.83
2023-01-07T06:49:50.290Z,18.84
2023-01-07T06:52:18.677Z,18.90
2023-01-07T06:54:48.501Z,18.96
2023-01-07T06:57:17.067Z,18.92
2023-01-07T06:59:45.257Z,18.94
2023-01-07T07:02:22.889Z,18.95
2023-01-07T07:04:51.204Z,18.95
2023-01-07T07:07:20.077Z,18.96
2023-01-07T07:09:49.750Z,18.93
2023-01-07T07:12:18.087Z,18.90
2023-01-07T07:14:46.968Z,18.93
2023-01-07T07:17:15.385Z,18.91
2023-01-07T07:19:43.633Z,18.95
2023-01-07T07:22:11.712Z,18.94
2023-01-07T07:24:40.191Z,18.93
2023-01-07T07:27:08.663Z,19.02
2023-01-07T07:29:36.841Z,19.08
2023-01-07T07:32:05.468Z,19.15
2023-01-07T07:34:35.734Z,19.19
2023-01-07T07:37:04.267Z,19.23
2023-01-07T07:39:32.647Z,19.29
2023-01-07T07:42:05.133Z,19.34
2023-01-07T07:44:33.351Z,19.37
2023-01-07T07:47:01.676Z,19.44
2023-01-07T07:49:30.515Z,19.48
2023-01-07T07:51:58.732Z,19.58
2023-01-07T07:54:27.020Z,20.27
2023-01-07T07:56:55.394Z,21.42
2023-01-07T07:59:23.959Z,22.56
2023-01-07T08:01:52.185Z,23.71
2023-01-07T08:04:20.324Z,24.58
2023-01-07T08:06:48.774Z,25.18
2023-01-07T08:09:16.830Z,25.68
2023-01-07T08:11:45.019Z,26.05
2023-01-07T08:14:13.200Z,26.21
2023-01-07T08:16:41.421Z,26.35
2023-01-07T08:19:10.960Z,27.11
2023-01-07T08:21:39.581Z,27.99
2023-01-07T08:24:08.115Z,28.48
2023-01-07T08:26:36.466Z,28.52
2023-01-07T08:29:04.896Z,28.30
2023-01-07T08:31:33.149Z,28.32
2023-01-07T08:34:01.505Z,29.13
2023-01-07T08:36:29.661Z,30.03
2023-01-07T08:38:57.983Z,30.95
2023-01-07T08:41:26.191Z,31.76
2023-01-07T08:43:54.301Z,32.70
2023-01-07T08:46:22.617Z,33.71
2023-01-07T08:48:50.794Z,34.55
2023-01-07T08:51:19.148Z,35.27
2023-01-07T08:53:47.458Z,35.86
2023-01-07T08:56:18.685Z,36.46
2023-01-07T08:58:47.294Z,36.90
2023-01-07T09:01:15.680Z,37.35
2023-01-07T09:03:43.847Z,37.74
2023-01-07T09:06:12.116Z,38.17
2023-01-07T09:08:40.356Z,38.49
2023-01-07T09:11:08.582Z,38.56
2023-01-07T09:13:36.864Z,38.66
2023-01-07T09:16:05.625Z,39.19
2023-01-07T09:18:33.947Z,39.58
2023-01-07T09:21:02.470Z,39.95
2023-01-07T09:23:30.816Z,39.51
2023-01-07T09:25:58.985Z,39.39
2023-01-07T09:28:27.957Z,39.29
2023-01-07T09:30:56.965Z,40.07
2023-01-07T09:33:25.298Z,40.88
2023-01-07T09:35:53.546Z,41.14
2023-01-07T09:38:21.770Z,41.55
2023-01-07T09:40:50.871Z,41.96
2023-01-07T09:43:59.732Z,42.51
2023-01-07T09:46:18.387Z,42.88
2023-01-07T09:48:51.654Z,43.28
2023-01-07T09:51:33.948Z,43.58
2023-01-07T09:54:05.199Z,43.77
2023-01-07T09:56:35.633Z,44.00
2023-01-07T09:59:06.499Z,43.83
2023-01-07T10:02:06.193Z,43.59
2023-01-07T10:04:42.888Z,42.91
2023-01-07T10:07:39.542Z,42.67
2023-01-07T10:10:59.707Z,42.41
2023-01-07T10:14:11.737Z,42.36
2023-01-07T10:17:09.216Z,42.93
2023-01-07T10:19:50.690Z,43.37
2023-01-07T10:22:32.013Z,43.82
2023-01-07T10:25:06.837Z,44.15
2023-01-07T10:27:39.979Z,44.21
2023-01-07T10:30:18.221Z,44.54
2023-01-07T10:32:49.125Z,44.75
2023-01-07T10:35:17.913Z,44.86
2023-01-07T10:37:46.368Z,44.64
2023-01-07T10:40:25.507Z,44.31
2023-01-07T10:43:23.040Z,44.28
2023-01-07T10:46:11.238Z,43.96
2023-01-07T10:48:47.651Z,44.05
2023-01-07T10:51:21.615Z,43.75
2023-01-07T10:54:14.575Z,43.61
2023-01-07T10:56:48.211Z,43.48
2023-01-07T10:59:20.023Z,43.60
2023-01-07T11:01:56.262Z,43.54
2023-01-07T11:04:26.486Z,43.17
2023-01-07T11:07:15.305Z,43.23
2023-01-07T11:09:47.438Z,43.27
2023-01-07T11:12:40.370Z,42.96
2023-01-07T11:15:41.030Z,42.70
2023-01-07T11:18:35.143Z,42.58
2023-01-07T11:21:03.453Z,42.95
2023-01-07T11:23:33.329Z,43.17
2023-01-07T11:26:37.334Z,43.33
2023-01-07T11:29:25.820Z,43.49
2023-01-07T11:31:59.748Z,43.90
2023-01-07T11:34:38.120Z,43.79
2023-01-07T11:37:06.695Z,43.79
2023-01-07T11:39:36.206Z,43.95
2023-01-07T11:42:25.580Z,44.16
2023-01-07T11:45:14.235Z,43.95
2023-01-07T11:47:49.158Z,43.57
2023-01-07T11:50:33.734Z,43.39
2023-01-07T11:53:15.280Z,43.22
2023-01-07T11:56:11.210Z,43.18
2023-01-07T11:58:43.632Z,43.05
2023-01-07T12:01:16.488Z,42.78
2023-01-07T12:04:20.718Z,42.31
2023-01-07T12:06:53.558Z,41.92
2023-01-07T12:09:34.032Z,41.80
2023-01-07T12:12:31.640Z,41.49
2023-01-07T12:15:04.962Z,40.95
2023-01-07T12:17:35.325Z,40.38
2023-01-07T12:20:32.358Z,39.77
2023-01-07T12:23:06.547Z,38.72
2023-01-07T12:25:40.621Z,37.98
2023-01-07T12:28:19.721Z,37.33
2023-01-07T12:31:27.029Z,36.96
2023-01-07T12:34:18.455Z,36.42
2023-01-07T12:36:56.901Z,36.23
2023-01-07T12:39:35.441Z,35.99
2023-01-07T12:42:19.019Z,35.49
2023-01-07T12:44:51.720Z,34.62
2023-01-07T12:47:36.695Z,34.35
2023-01-07T12:50:16.881Z,34.16
2023-01-07T12:53:04.019Z,33.87
2023-01-07T12:55:37.112Z,33.62
2023-01-07T12:58:23.627Z,33.55
2023-01-07T13:01:26.603Z,33.38
2023-01-07T13:04:04.331Z,33.35
2023-01-07T13:06:43.245Z,33.12
2023-01-07T13:09:18.570Z,33.12
2023-01-07T13:11:55.312Z,33.09
2023-01-07T13:14:37.374Z,33.04
2023-01-07T13:17:16.929Z,32.93
2023-01-07T13:19:51.209Z,32.89
2023-01-07T13:22:38.084Z,32.19
2023-01-07T13:25:50.367Z,32.05
2023-01-07T13:28:29.831Z,31.54
2023-01-07T13:32:02.118Z,30.70
2023-01-07T13:34:46.479Z,30.57
2023-01-07T13:37:48.761Z,30.54
2023-01-07T13:40:30.291Z,30.70
2023-01-07T13:43:18.444Z,30.64
2023-01-07T13:45:57.066Z,30.26
2023-01-07T13:48:28.948Z,30.44
2023-01-07T13:51:01.702Z,30.76
2023-01-07T13:53:46.549Z,30.76
2023-01-07T13:56:18.604Z,30.52
2023-01-07T13:58:48.256Z,30.43
2023-01-07T14:01:21.387Z,30.11
2023-01-07T14:03:57.464Z,29.88
2023-01-07T14:06:41.461Z,29.67
2023-01-07T14:09:09.647Z,29.45
2023-01-07T14:11:37.865Z,29.70
2023-01-07T14:14:21.287Z,29.82
2023-01-07T14:17:01.358Z,29.62
2023-01-07T14:19:51.317Z,29.97
2023-01-07T14:22:30.485Z,30.15
2023-01-07T14:25:30.811Z,30.37
2023-01-07T14:28:21.486Z,30.57
2023-01-07T14:30:52.671Z,30.39
2023-01-07T14:33:25.187Z,30.12
2023-01-07T14:35:53.418Z,29.76
2023-01-07T14:38:30.663Z,29.57
2023-01-07T14:41:13.971Z,29.53
2023-01-07T14:43:42.066Z,29.39
2023-01-07T14:46:23.070Z,29.23
2023-01-07T14:49:00.675Z,29.08
2023-01-07T14:52:10.628Z,29.31
2023-01-07T14:55:04.260Z,29.36
2023-01-07T14:57:39.483Z,29.11
2023-01-07T15:00:35.536Z,29.20
2023-01-07T15:03:17.591Z,28.97
2023-01-07T15:06:08.226Z,28.40
2023-01-07T15:08:42.635Z,28.21
2023-01-07T15:11:20.280Z,28.03
2023-01-07T15:14:04.541Z,27.76
2023-01-07T15:16:35.660Z,27.53
2023-01-07T15:19:04.245Z,27.62
2023-01-07T15:21:54.034Z,27.67
2023-01-07T15:24:43.221Z,27.85
2023-01-07T15:27:48.275Z,27.82
2023-01-07T15:30:38.200Z,27.50
2023-01-07T15:33:26.254Z,27.54
2023-01-07T15:35:56.576Z,26.98
2023-01-07T15:38:27.817Z,27.04
2023-01-07T15:40:58.547Z,26.82
2023-01-07T15:43:30.112Z,26.77
2023-01-07T15:46:03.076Z,26.76
2023-01-07T15:48:31.875Z,26.59
2023-01-07T15:51:00.305Z,26.24
2023-01-07T15:53:29.714Z,26.65
2023-01-07T15:56:11.474Z,26.83
2023-01-07T15:58:48.763Z,26.42
2023-01-07T16:01:20.578Z,26.80
2023-01-07T16:03:51.636Z,26.83
2023-01-07T16:06:31.408Z,26.81
2023-01-07T16:09:03.460Z,27.03
2023-01-07T16:11:32.531Z,26.92
2023-01-07T16:14:03.161Z,26.87
2023-01-07T16:16:32.484Z,26.93
2023-01-07T16:19:03.092Z,26.81
2023-01-07T16:21:38.091Z,26.62
2023-01-07T16:24:07.389Z,26.87
2023-01-07T16:26:49.704Z,26.92
2023-01-07T16:29:25.529Z,26.89
2023-01-07T16:31:54.902Z,26.82
2023-01-07T16:34:26.230Z,26.77
2023-01-07T16:37:05.373Z,26.62
2023-01-07T16:39:38.697Z,26.48
2023-01-07T16:42:07.558Z,26.36
2023-01-07T16:44:44.802Z,26.05
2023-01-07T16:47:21.802Z,26.20
2023-01-07T16:49:58.758Z,25.86
2023-01-07T16:52:33.337Z,25.85
2023-01-07T16:55:01.651Z,25.88
2023-01-07T16:57:40.378Z,25.79
2023-01-07T17:00:19.473Z,25.58
2023-01-07T17:02:57.613Z,25.68
2023-01-07T17:05:30.092Z,25.66
2023-01-07T17:08:02.446Z,25.55
2023-01-07T17:10:35.373Z,25.58
2023-01-07T17:13:07.758Z,25.48
2023-01-07T17:15:38.670Z,25.47
2023-01-07T17:18:15.722Z,25.46
2023-01-07T17:21:00.386Z,25.25
2023-01-07T17:23:28.725Z,25.27
2023-01-07T17:26:11.731Z,25.34
2023-01-07T17:28:55.121Z,25.42
2023-01-07T17:31:23.970Z,25.40
2023-01-07T17:33:53.250Z,25.36
2023-01-07T17:36:26.749Z,25.24
2023-01-07T17:38:54.907Z,25.29
2023-01-07T17:41:24.054Z,25.29
2023-01-07T17:43:52.427Z,25.29
2023-01-07T17:46:20.827Z,25.30
2023-01-07T17:48:49.035Z,25.18
2023-01-07T17:51:17.699Z,25.05
2023-01-07T17:53:49.119Z,25.08
2023-01-07T17:56:17.550Z,25.00
2023-01-07T17:58:46.546Z,24.96
2023-01-07T18:01:24.445Z,24.93
2023-01-07T18:03:53.468Z,24.86
2023-01-07T18:06:25.941Z,24.82
2023-01-07T18:08:54.090Z,24.80
2023-01-07T18:11:26.589Z,24.86
2023-01-07T18:13:54.752Z,24.87
2023-01-07T18:16:23.045Z,24.90
2023-01-07T18:18:51.251Z,24.94
2023-01-07T18:21:19.591Z,24.88
2023-01-07T18:23:47.695Z,24.86
2023-01-07T18:26:17.154Z,24.70
2023-01-07T18:28:46.786Z,24.71
2023-01-07T18:31:15.767Z,24.65
2023-01-07T18:33:44.143Z,24.74
2023-01-07T18:36:12.317Z,24.91
2023-01-07T18:38:40.665Z,24.90
2023-01-07T18:41:09.237Z,24.86
2023-01-07T18:43:37.366Z,24.88
2023-01-07T18:46:11.057Z,24.91
2023-01-07T18:48:39.302Z,24.95
2023-01-07T18:51:11.589Z,24.94
2023-01-07T18:53:39.837Z,24.96
2023-01-07T18:56:08.194Z,25.04
2023-01-07T18:58:36.609Z,25.00
2023-01-07T19:01:07.032Z,25.02
2023-01-07T19:03:35.828Z,24.95
2023-01-07T19:06:11.536Z,24.88
2023-01-07T19:08:39.642Z,24.94
2023-01-07T19:11:09.306Z,25.01
2023-01-07T19:13:37.820Z,25.02
2023-01-07T19:16:12.078Z,25.03
2023-01-07T19:18:40.577Z,25.02
2023-01-07T19:21:11.807Z,24.99
2023-01-07T19:23:40.145Z,24.97
2023-01-07T19:26:11.175Z,24.88
2023-01-07T19:28:39.452Z,24.83
2023-01-07T19:31:08.803Z,24.77
2023-01-07T19:33:37.955Z,24.71
2023-01-07T19:36:09.548Z,24.61
2023-01-07T19:38:42.664Z,24.52
2023-01-07T19:41:13.334Z,24.43
2023-01-07T19:43:41.507Z,24.38
2023-01-07T19:46:11.694Z,24.32
2023-01-07T19:48:40.876Z,24.31
2023-01-07T19:51:09.109Z,24.31
2023-01-07T19:53:37.459Z,24.28
2023-01-07T19:56:08.796Z,24.29
2023-01-07T19:58:40.120Z,24.32
2023-01-07T20:01:13.026Z,24.31
2023-01-07T20:03:42.864Z,24.29
2023-01-07T20:06:14.370Z,24.27
2023-01-07T20:08:43.686Z,24.26
2023-01-07T20:11:12.514Z,24.24
2023-01-07T20:13:41.403Z,24.22
2023-01-07T20:16:13.801Z,24.20
2023-01-07T20:18:43.952Z,24.20
2023-01-07T20:21:16.289Z,24.20
2023-01-07T20:23:46.065Z,24.22
2023-01-07T20:26:20.449Z,24.21
2023-01-07T20:28:49.816Z,24.24
2023-01-07T20:31:21.592Z,24.23
2023-01-07T20:33:50.752Z,24.26
2023-01-07T20:36:25.183Z,24.19
2023-01-07T20:38:53.824Z,24.17
2023-01-07T20:41:25.219Z,24.19
2023-01-07T20:44:02.009Z,24.24
2023-01-07T20:46:31.391Z,24.32
2023-01-07T20:48:59.584Z,24.32
2023-01-07T20:51:28.265Z,24.30
2023-01-07T20:53:57.463Z,24.27
2023-01-07T20:56:25.864Z,24.21
2023-01-07T20:58:53.948Z,24.15
2023-01-07T21:01:22.496Z,24.15
2023-01-07T21:03:50.809Z,24.14
2023-01-07T21:06:20.576Z,24.11
2023-01-07T21:08:49.673Z,24.11
2023-01-07T21:11:21.061Z,24.12
2023-01-07T21:13:52.738Z,24.16
2023-01-07T21:16:20.938Z,24.13
2023-01-07T21:18:49.373Z,24.09
2023-01-07T21:21:23.154Z,24.06
2023-01-07T21:23:52.855Z,23.94
2023-01-07T21:26:21.154Z,23.88
2023-01-07T21:28:52.988Z,23.84
2023-01-07T21:31:21.843Z,23.80
2023-01-07T21:33:54.435Z,23.73
2023-01-07T21:36:24.094Z,23.67
2023-01-07T21:38:54.945Z,23.60
2023-01-07T21:41:24.958Z,23.56
2023-01-07T21:43:53.109Z,23.53
2023-01-07T21:46:21.889Z,23.50
2023-01-07T21:48:50.909Z,23.47
2023-01-07T21:51:23.452Z,23.40
2023-01-07T21:53:52.463Z,23.27
2023-01-07T21:56:20.846Z,23.27
2023-01-07T21:58:49.778Z,23.27
2023-01-07T22:01:18.876Z,23.29
2023-01-07T22:03:48.941Z,23.25
2023-01-07T22:06:23.014Z,23.28
2023-01-07T22:08:56.290Z,23.27
2023-01-07T22:11:25.863Z,23.29
2023-01-07T22:13:56.941Z,23.36
2023-01-07T22:16:30.609Z,23.33
2023-01-07T22:18:59.361Z,23.35
2023-01-07T22:21:27.638Z,23.35
2023-01-07T22:23:55.837Z,23.37
2023-01-07T22:26:24.299Z,23.39
2023-01-07T22:29:02.931Z,23.38
2023-01-07T22:31:34.350Z,23.37
2023-01-07T22:34:03.906Z,23.31
2023-01-07T22:36:34.893Z,23.23
2023-01-07T22:39:07.769Z,23.15
2023-01-07T22:41:36.557Z,23.11
2023-01-07T22:44:12.524Z,23.13
2023-01-07T22:46:43.290Z,23.14
2023-01-07T22:49:11.621Z,23.12
2023-01-07T22:51:44.363Z,23.10
2023-01-07T22:54:13.592Z,23.03
2023-01-07T22:56:42.464Z,22.81
2023-01-07T22:59:10.993Z,22.42
2023-01-07T23:01:39.280Z,22.71
2023-01-07T23:04:07.722Z,23.02
2023-01-07T23:06:36.579Z,23.14
2023-01-07T23:09:05.210Z,23.14
2023-01-07T23:11:33.427Z,23.19
2023-01-07T23:14:01.914Z,23.22
2023-01-07T23:16:30.218Z,23.12
2023-01-07T23:18:58.432Z,23.07
2023-01-07T23:21:26.608Z,23.20
2023-01-07T23:23:55.160Z,22.95
2023-01-07T23:26:23.442Z,22.92
2023-01-07T23:28:51.768Z,22.89
2023-01-07T23:31:19.911Z,22.89
2023-01-07T23:33:50.861Z,22.67
2023-01-07T23:36:19.470Z,22.54
2023-01-07T23:38:48.051Z,22.39
2023-01-07T23:41:16.223Z,22.44
2023-01-07T23:43:45.185Z,22.36
2023-01-07T23:46:14.621Z,22.43
2023-01-07T23:48:42.830Z,22.59
2023-01-07T23:51:16.362Z,22.75
2023-01-07T23:53:45.837Z,22.88
2023-01-07T23:56:14.997Z,23.14
2023-01-07T23:58:43.441Z,23.18
